sensor_id;sensor_type;location;lat;lon;timestamp;temperature;humidity
70986;DHT22;58645;43.068;25.610;2023-06-22T00:00:58;19.60;99.90
70986;DHT22;58645;43.068;25.610;2023-06-22T00:03:25;19.60;99.90
70986;DHT22;58645;43.068;25.610;2023-06-22T00:05:51;19.50;99.90
70986;DHT22;58645;43.068;25.610;2023-06-22T00:08:18;19.40;99.90
70986;DHT22;58645;43.068;25.610;2023-06-22T00:10:45;19.40;99.90
70986;DHT22;58645;43.068;25.610;2023-06-22T00:13:12;19.40;99.90
70986;DHT22;58645;43.068;25.610;2023-06-22T00:15:39;19.40;99.90
70986;DHT22;58645;43.068;25.610;2023-06-22T00:18:09;19.40;99.90
70986;DHT22;58645;43.068;25.610;2023-06-22T00:20:35;19.40;99.90
70986;DHT22;58645;43.068;25.610;2023-06-22T00:23:05;19.40;99.90
70986;DHT22;58645;43.068;25.610;2023-06-22T00:25:37;19.40;99.90
70986;DHT22;58645;43.068;25.610;2023-06-22T00:28:04;19.40;99.90
70986;DHT22;58645;43.068;25.610;2023-06-22T00:30:31;19.30;99.90
70986;DHT22;58645;43.068;25.610;2023-06-22T00:32:57;19.40;99.90
70986;DHT22;58645;43.068;25.610;2023-06-22T00:35:23;19.30;99.90
70986;DHT22;58645;43.068;25.610;2023-06-22T00:37:59;19.30;99.90
70986;DHT22;58645;43.068;25.610;2023-06-22T00:40:30;19.30;99.90
70986;DHT22;58645;43.068;25.610;2023-06-22T00:42:57;19.30;99.90
70986;DHT22;58645;43.068;25.610;2023-06-22T00:45:24;19.20;99.90
70986;DHT22;58645;43.068;25.610;2023-06-22T00:47:57;19.20;99.90
70986;DHT22;58645;43.068;25.610;2023-06-22T00:50:26;19.20;99.90
70986;DHT22;58645;43.068;25.610;2023-06-22T00:52:53;19.20;99.90
70986;DHT22;58645;43.068;25.610;2023-06-22T00:55:22;19.10;99.90
70986;DHT22;58645;43.068;25.610;2023-06-22T00:57:48;19.10;99.90
70986;DHT22;58645;43.068;25.610;2023-06-22T01:00:15;19.00;99.90
70986;DHT22;58645;43.068;25.610;2023-06-22T01:02:46;19.00;99.90
70986;DHT22;58645;43.068;25.610;2023-06-22T01:05:16;18.90;99.90
70986;DHT22;58645;43.068;25.610;2023-06-22T01:16:23;18.80;99.90
70986;DHT22;58645;43.068;25.610;2023-06-22T01:18:53;18.80;99.90
70986;DHT22;58645;43.068;25.610;2023-06-22T01:21:22;18.80;99.90
70986;DHT22;58645;43.068;25.610;2023-06-22T01:24:15;18.80;99.90
70986;DHT22;58645;43.068;25.610;2023-06-22T01:29:21;18.80;99.90
70986;DHT22;58645;43.068;25.610;2023-06-22T01:31:48;18.70;99.90
70986;DHT22;58645;43.068;25.610;2023-06-22T01:34:15;18.70;99.90
70986;DHT22;58645;43.068;25.610;2023-06-22T01:36:42;18.70;99.90
70986;DHT22;58645;43.068;25.610;2023-06-22T01:39:09;18.70;99.90
70986;DHT22;58645;43.068;25.610;2023-06-22T01:41:37;18.60;99.90
70986;DHT22;58645;43.068;25.610;2023-06-22T01:44:07;18.60;99.90
70986;DHT22;58645;43.068;25.610;2023-06-22T01:46:35;18.60;99.90
70986;DHT22;58645;43.068;25.610;2023-06-22T01:49:05;18.60;99.90
70986;DHT22;58645;43.068;25.610;2023-06-22T01:51:31;18.60;99.90
70986;DHT22;58645;43.068;25.610;2023-06-22T01:53:57;18.60;99.90
70986;DHT22;58645;43.068;25.610;2023-06-22T01:56:22;18.60;99.90
70986;DHT22;58645;43.068;25.610;2023-06-22T01:58:58;18.60;99.90
70986;DHT22;58645;43.068;25.610;2023-06-22T02:01:30;18.60;99.90
70986;DHT22;58645;43.068;25.610;2023-06-22T02:04:12;18.60;99.90
70986;DHT22;58645;43.068;25.610;2023-06-22T02:06:39;18.60;99.90
70986;DHT22;58645;43.068;25.610;2023-06-22T02:09:14;18.50;99.90
70986;DHT22;58645;43.068;25.610;2023-06-22T02:11:43;18.60;99.90
70986;DHT22;58645;43.068;25.610;2023-06-22T02:14:11;18.60;99.90
70986;DHT22;58645;43.068;25.610;2023-06-22T02:16:37;18.60;99.90
70986;DHT22;58645;43.068;25.610;2023-06-22T02:19:03;18.60;99.90
70986;DHT22;58645;43.068;25.610;2023-06-22T02:21:29;18.60;99.90
70986;DHT22;58645;43.068;25.610;2023-06-22T02:23:56;18.60;99.90
70986;DHT22;58645;43.068;25.610;2023-06-22T02:26:22;18.60;99.90
70986;DHT22;58645;43.068;25.610;2023-06-22T02:28:49;18.50;99.90
70986;DHT22;58645;43.068;25.610;2023-06-22T02:31:14;18.50;99.90
70986;DHT22;58645;43.068;25.610;2023-06-22T02:33:41;18.40;99.90
70986;DHT22;58645;43.068;25.610;2023-06-22T02:36:07;18.30;99.90
70986;DHT22;58645;43.068;25.610;2023-06-22T02:38:35;18.30;99.90
70986;DHT22;58645;43.068;25.610;2023-06-22T02:41:02;18.30;99.90
70986;DHT22;58645;43.068;25.610;2023-06-22T02:43:27;18.30;99.90
70986;DHT22;58645;43.068;25.610;2023-06-22T02:45:53;18.20;99.90
70986;DHT22;58645;43.068;25.610;2023-06-22T02:48:19;18.20;99.90
70986;DHT22;58645;43.068;25.610;2023-06-22T02:50:45;18.20;99.90
70986;DHT22;58645;43.068;25.610;2023-06-22T02:53:11;18.20;99.90
70986;DHT22;58645;43.068;25.610;2023-06-22T02:55:36;18.20;99.90
70986;DHT22;58645;43.068;25.610;2023-06-22T02:58:02;18.20;99.90
70986;DHT22;58645;43.068;25.610;2023-06-22T03:00:31;18.30;99.90
70986;DHT22;58645;43.068;25.610;2023-06-22T03:02:57;18.30;99.90
70986;DHT22;58645;43.068;25.610;2023-06-22T03:05:23;18.30;99.90
70986;DHT22;58645;43.068;25.610;2023-06-22T03:07:49;18.30;99.90
70986;DHT22;58645;43.068;25.610;2023-06-22T03:10:15;18.30;99.90
70986;DHT22;58645;43.068;25.610;2023-06-22T03:12:42;18.40;99.90
70986;DHT22;58645;43.068;25.610;2023-06-22T03:15:10;18.40;99.90
70986;DHT22;58645;43.068;25.610;2023-06-22T03:17:37;18.40;99.90
70986;DHT22;58645;43.068;25.610;2023-06-22T03:20:04;18.50;99.90
70986;DHT22;58645;43.068;25.610;2023-06-22T03:22:40;18.50;99.90
70986;DHT22;58645;43.068;25.610;2023-06-22T03:25:09;18.50;99.90
70986;DHT22;58645;43.068;25.610;2023-06-22T03:27:37;18.50;99.90
70986;DHT22;58645;43.068;25.610;2023-06-22T03:30:03;18.50;99.90
70986;DHT22;58645;43.068;25.610;2023-06-22T03:32:29;18.50;99.90
70986;DHT22;58645;43.068;25.610;2023-06-22T03:34:54;18.50;99.90
70986;DHT22;58645;43.068;25.610;2023-06-22T03:37:27;18.60;99.90
70986;DHT22;58645;43.068;25.610;2023-06-22T03:39:53;18.60;99.90
70986;DHT22;58645;43.068;25.610;2023-06-22T03:42:19;18.50;99.90
70986;DHT22;58645;43.068;25.610;2023-06-22T03:44:45;18.50;99.90
70986;DHT22;58645;43.068;25.610;2023-06-22T03:47:11;18.50;99.90
70986;DHT22;58645;43.068;25.610;2023-06-22T03:49:37;18.50;99.90
70986;DHT22;58645;43.068;25.610;2023-06-22T03:52:03;18.50;99.90
70986;DHT22;58645;43.068;25.610;2023-06-22T03:54:29;18.50;99.90
70986;DHT22;58645;43.068;25.610;2023-06-22T03:56:57;18.60;99.90
70986;DHT22;58645;43.068;25.610;2023-06-22T03:59:23;18.60;99.90
70986;DHT22;58645;43.068;25.610;2023-06-22T04:01:48;18.60;99.90
70986;DHT22;58645;43.068;25.610;2023-06-22T04:04:14;18.80;99.90
70986;DHT22;58645;43.068;25.610;2023-06-22T04:06:41;18.80;99.90
70986;DHT22;58645;43.068;25.610;2023-06-22T04:09:07;18.80;99.90
70986;DHT22;58645;43.068;25.610;2023-06-22T04:11:32;18.90;99.90
70986;DHT22;58645;43.068;25.610;2023-06-22T04:13:58;19.00;99.90
70986;DHT22;58645;43.068;25.610;2023-06-22T04:16:24;19.20;99.90
70986;DHT22;58645;43.068;25.610;2023-06-22T04:18:49;19.30;99.90
70986;DHT22;58645;43.068;25.610;2023-06-22T04:21:15;19.50;99.90
70986;DHT22;58645;43.068;25.610;2023-06-22T04:23:41;19.60;99.90
70986;DHT22;58645;43.068;25.610;2023-06-22T04:26:08;19.70;99.90
70986;DHT22;58645;43.068;25.610;2023-06-22T04:28:34;19.80;99.90
70986;DHT22;58645;43.068;25.610;2023-06-22T04:31:02;20.00;99.90
70986;DHT22;58645;43.068;25.610;2023-06-22T04:33:29;20.10;99.90
70986;DHT22;58645;43.068;25.610;2023-06-22T04:35:58;20.10;99.90
70986;DHT22;58645;43.068;25.610;2023-06-22T04:38:26;20.20;99.90
70986;DHT22;58645;43.068;25.610;2023-06-22T04:40:52;20.30;99.90
70986;DHT22;58645;43.068;25.610;2023-06-22T04:43:19;20.40;99.90
70986;DHT22;58645;43.068;25.610;2023-06-22T04:45:45;20.60;99.90
70986;DHT22;58645;43.068;25.610;2023-06-22T04:48:11;20.70;99.90
70986;DHT22;58645;43.068;25.610;2023-06-22T04:50:41;20.80;99.90
70986;DHT22;58645;43.068;25.610;2023-06-22T04:53:07;20.90;99.90
70986;DHT22;58645;43.068;25.610;2023-06-22T04:55:39;21.00;99.90
70986;DHT22;58645;43.068;25.610;2023-06-22T04:58:11;21.20;99.90
70986;DHT22;58645;43.068;25.610;2023-06-22T05:00:38;21.30;99.90
70986;DHT22;58645;43.068;25.610;2023-06-22T05:03:04;21.50;99.90
70986;DHT22;58645;43.068;25.610;2023-06-22T05:05:32;21.60;99.90
70986;DHT22;58645;43.068;25.610;2023-06-22T05:07:57;21.60;99.90
70986;DHT22;58645;43.068;25.610;2023-06-22T05:10:26;21.80;99.90
70986;DHT22;58645;43.068;25.610;2023-06-22T05:12:52;21.90;99.90
70986;DHT22;58645;43.068;25.610;2023-06-22T05:15:18;22.00;99.90
70986;DHT22;58645;43.068;25.610;2023-06-22T05:17:47;22.20;99.90
70986;DHT22;58645;43.068;25.610;2023-06-22T05:20:16;22.30;99.90
70986;DHT22;58645;43.068;25.610;2023-06-22T05:22:43;22.50;99.90
70986;DHT22;58645;43.068;25.610;2023-06-22T05:25:10;22.60;99.90
70986;DHT22;58645;43.068;25.610;2023-06-22T05:27:37;22.80;99.90
70986;DHT22;58645;43.068;25.610;2023-06-22T05:30:09;23.00;99.90
70986;DHT22;58645;43.068;25.610;2023-06-22T05:32:35;23.10;99.90
70986;DHT22;58645;43.068;25.610;2023-06-22T05:35:02;23.20;99.90
70986;DHT22;58645;43.068;25.610;2023-06-22T05:37:29;23.20;99.90
70986;DHT22;58645;43.068;25.610;2023-06-22T05:39:54;23.40;99.90
70986;DHT22;58645;43.068;25.610;2023-06-22T05:42:21;23.60;99.90
70986;DHT22;58645;43.068;25.610;2023-06-22T05:44:47;23.70;99.90
70986;DHT22;58645;43.068;25.610;2023-06-22T05:47:13;23.80;99.90
70986;DHT22;58645;43.068;25.610;2023-06-22T05:49:38;24.00;99.90
70986;DHT22;58645;43.068;25.610;2023-06-22T05:52:04;24.10;99.90
70986;DHT22;58645;43.068;25.610;2023-06-22T05:54:30;24.20;99.90
70986;DHT22;58645;43.068;25.610;2023-06-22T05:56:56;24.40;99.90
70986;DHT22;58645;43.068;25.610;2023-06-22T05:59:22;24.80;99.90
70986;DHT22;58645;43.068;25.610;2023-06-22T06:01:47;25.00;99.90
70986;DHT22;58645;43.068;25.610;2023-06-22T06:04:19;25.10;99.90
70986;DHT22;58645;43.068;25.610;2023-06-22T06:06:45;25.20;99.90
70986;DHT22;58645;43.068;25.610;2023-06-22T06:09:13;25.50;99.90
70986;DHT22;58645;43.068;25.610;2023-06-22T06:11:39;25.80;99.90
70986;DHT22;58645;43.068;25.610;2023-06-22T06:14:05;25.80;99.90
70986;DHT22;58645;43.068;25.610;2023-06-22T06:16:30;26.20;99.90
70986;DHT22;58645;43.068;25.610;2023-06-22T06:18:57;26.50;99.90
70986;DHT22;58645;43.068;25.610;2023-06-22T06:21:27;26.80;99.90
70986;DHT22;58645;43.068;25.610;2023-06-22T06:23:56;27.00;99.90
70986;DHT22;58645;43.068;25.610;2023-06-22T06:26:22;27.20;99.90
70986;DHT22;58645;43.068;25.610;2023-06-22T06:28:54;27.20;99.90
70986;DHT22;58645;43.068;25.610;2023-06-22T06:31:20;27.60;99.90
70986;DHT22;58645;43.068;25.610;2023-06-22T06:33:46;27.90;99.90
70986;DHT22;58645;43.068;25.610;2023-06-22T06:36:12;28.10;99.90
70986;DHT22;58645;43.068;25.610;2023-06-22T06:38:38;28.50;99.90
70986;DHT22;58645;43.068;25.610;2023-06-22T06:41:03;28.90;99.80
70986;DHT22;58645;43.068;25.610;2023-06-22T06:43:29;29.30;99.50
70986;DHT22;58645;43.068;25.610;2023-06-22T06:45:55;29.60;99.10
70986;DHT22;58645;43.068;25.610;2023-06-22T06:48:21;29.80;95.00
70986;DHT22;58645;43.068;25.610;2023-06-22T06:50:46;30.00;93.50
70986;DHT22;58645;43.068;25.610;2023-06-22T06:53:12;30.50;92.80
70986;DHT22;58645;43.068;25.610;2023-06-22T06:55:38;30.70;92.10
70986;DHT22;58645;43.068;25.610;2023-06-22T06:58:04;30.90;88.10
70986;DHT22;58645;43.068;25.610;2023-06-22T07:00:33;30.80;88.00
70986;DHT22;58645;43.068;25.610;2023-06-22T07:02:59;30.70;87.70
70986;DHT22;58645;43.068;25.610;2023-06-22T07:05:24;30.50;86.30
70986;DHT22;58645;43.068;25.610;2023-06-22T07:07:50;30.90;85.90
70986;DHT22;58645;43.068;25.610;2023-06-22T07:10:16;31.00;85.30
70986;DHT22;58645;43.068;25.610;2023-06-22T07:12:41;31.40;82.50
70986;DHT22;58645;43.068;25.610;2023-06-22T07:15:09;31.70;81.90
70986;DHT22;58645;43.068;25.610;2023-06-22T07:17:35;32.10;78.80
70986;DHT22;58645;43.068;25.610;2023-06-22T07:20:02;32.30;78.60
70986;DHT22;58645;43.068;25.610;2023-06-22T07:22:33;32.40;76.80
70986;DHT22;58645;43.068;25.610;2023-06-22T07:24:58;32.50;75.60
70986;DHT22;58645;43.068;25.610;2023-06-22T07:27:24;32.60;70.70
70986;DHT22;58645;43.068;25.610;2023-06-22T07:29:50;32.60;71.70
70986;DHT22;58645;43.068;25.610;2023-06-22T07:32:16;32.80;71.20
70986;DHT22;58645;43.068;25.610;2023-06-22T07:34:42;32.80;70.10
70986;DHT22;58645;43.068;25.610;2023-06-22T07:37:08;32.70;66.60
70986;DHT22;58645;43.068;25.610;2023-06-22T07:39:34;32.60;68.50
70986;DHT22;58645;43.068;25.610;2023-06-22T07:42:00;32.70;64.40
70986;DHT22;58645;43.068;25.610;2023-06-22T07:44:25;32.80;65.20
70986;DHT22;58645;43.068;25.610;2023-06-22T07:46:51;33.00;62.20
70986;DHT22;58645;43.068;25.610;2023-06-22T07:49:17;33.10;62.70
70986;DHT22;58645;43.068;25.610;2023-06-22T07:51:44;33.30;60.50
70986;DHT22;58645;43.068;25.610;2023-06-22T07:54:10;33.60;63.60
70986;DHT22;58645;43.068;25.610;2023-06-22T07:56:37;33.60;59.20
70986;DHT22;58645;43.068;25.610;2023-06-22T07:59:03;33.70;59.80
70986;DHT22;58645;43.068;25.610;2023-06-22T08:01:29;33.90;60.00
70986;DHT22;58645;43.068;25.610;2023-06-22T08:03:55;33.70;58.80
70986;DHT22;58645;43.068;25.610;2023-06-22T08:06:21;34.10;58.60
70986;DHT22;58645;43.068;25.610;2023-06-22T08:08:47;34.50;60.20
70986;DHT22;58645;43.068;25.610;2023-06-22T08:11:14;34.40;59.00
70986;DHT22;58645;43.068;25.610;2023-06-22T08:13:40;34.30;60.00
70986;DHT22;58645;43.068;25.610;2023-06-22T08:16:05;34.40;56.40
70986;DHT22;58645;43.068;25.610;2023-06-22T08:18:32;34.70;58.10
70986;DHT22;58645;43.068;25.610;2023-06-22T08:20:59;34.90;56.40
70986;DHT22;58645;43.068;25.610;2023-06-22T08:23:25;34.80;57.60
70986;DHT22;58645;43.068;25.610;2023-06-22T08:25:51;34.80;55.90
70986;DHT22;58645;43.068;25.610;2023-06-22T08:28:16;34.60;55.80
70986;DHT22;58645;43.068;25.610;2023-06-22T08:30:42;34.60;57.50
70986;DHT22;58645;43.068;25.610;2023-06-22T08:33:08;34.90;56.60
70986;DHT22;58645;43.068;25.610;2023-06-22T08:35:33;35.00;56.00
70986;DHT22;58645;43.068;25.610;2023-06-22T08:37:59;35.50;53.30
70986;DHT22;58645;43.068;25.610;2023-06-22T08:40:25;35.30;52.60
70986;DHT22;58645;43.068;25.610;2023-06-22T08:42:51;35.10;55.80
70986;DHT22;58645;43.068;25.610;2023-06-22T08:45:17;34.90;54.00
70986;DHT22;58645;43.068;25.610;2023-06-22T08:47:43;35.00;54.80
70986;DHT22;58645;43.068;25.610;2023-06-22T08:50:09;35.10;54.40
70986;DHT22;58645;43.068;25.610;2023-06-22T08:52:36;35.30;52.10
70986;DHT22;58645;43.068;25.610;2023-06-22T08:55:02;35.30;52.60
70986;DHT22;58645;43.068;25.610;2023-06-22T08:57:28;35.50;51.80
70986;DHT22;58645;43.068;25.610;2023-06-22T08:59:54;35.70;50.80
70986;DHT22;58645;43.068;25.610;2023-06-22T09:02:24;35.90;49.80
70986;DHT22;58645;43.068;25.610;2023-06-22T09:04:49;36.10;50.80
70986;DHT22;58645;43.068;25.610;2023-06-22T09:07:22;36.70;49.90
70986;DHT22;58645;43.068;25.610;2023-06-22T09:09:49;36.20;48.40
70986;DHT22;58645;43.068;25.610;2023-06-22T09:12:15;36.60;48.00
70986;DHT22;58645;43.068;25.610;2023-06-22T09:14:41;36.40;48.60
70986;DHT22;58645;43.068;25.610;2023-06-22T09:17:18;36.30;48.30
70986;DHT22;58645;43.068;25.610;2023-06-22T09:19:44;36.40;48.50
70986;DHT22;58645;43.068;25.610;2023-06-22T09:22:10;36.40;48.30
70986;DHT22;58645;43.068;25.610;2023-06-22T09:24:36;36.70;48.30
70986;DHT22;58645;43.068;25.610;2023-06-22T09:27:01;36.60;46.00
70986;DHT22;58645;43.068;25.610;2023-06-22T09:29:27;36.70;45.30
70986;DHT22;58645;43.068;25.610;2023-06-22T09:31:53;36.70;45.70
70986;DHT22;58645;43.068;25.610;2023-06-22T09:34:21;36.90;45.60
70986;DHT22;58645;43.068;25.610;2023-06-22T09:36:47;37.20;45.70
70986;DHT22;58645;43.068;25.610;2023-06-22T09:39:13;37.10;45.00
70986;DHT22;58645;43.068;25.610;2023-06-22T09:41:39;37.10;45.20
70986;DHT22;58645;43.068;25.610;2023-06-22T09:44:04;36.60;44.20
70986;DHT22;58645;43.068;25.610;2023-06-22T09:46:30;35.90;46.70
70986;DHT22;58645;43.068;25.610;2023-06-22T09:48:56;35.90;46.50
70986;DHT22;58645;43.068;25.610;2023-06-22T09:51:22;36.10;47.10
70986;DHT22;58645;43.068;25.610;2023-06-22T09:53:49;36.40;45.30
70986;DHT22;58645;43.068;25.610;2023-06-22T09:56:15;36.90;45.40
70986;DHT22;58645;43.068;25.610;2023-06-22T09:58:46;37.30;45.20
70986;DHT22;58645;43.068;25.610;2023-06-22T10:01:12;37.50;43.20
70986;DHT22;58645;43.068;25.610;2023-06-22T10:03:41;37.40;44.40
70986;DHT22;58645;43.068;25.610;2023-06-22T10:06:07;37.40;44.20
70986;DHT22;58645;43.068;25.610;2023-06-22T10:08:34;37.50;42.60
70986;DHT22;58645;43.068;25.610;2023-06-22T10:11:01;36.90;44.10
70986;DHT22;58645;43.068;25.610;2023-06-22T10:13:26;36.20;46.70
70986;DHT22;58645;43.068;25.610;2023-06-22T10:15:52;35.40;46.60
70986;DHT22;58645;43.068;25.610;2023-06-22T10:18:19;34.70;47.60
70986;DHT22;58645;43.068;25.610;2023-06-22T10:20:49;34.70;49.00
70986;DHT22;58645;43.068;25.610;2023-06-22T10:23:19;35.00;49.40
70986;DHT22;58645;43.068;25.610;2023-06-22T10:25:45;34.40;48.70
70986;DHT22;58645;43.068;25.610;2023-06-22T10:28:11;34.50;51.00
70986;DHT22;58645;43.068;25.610;2023-06-22T10:30:39;34.40;49.20
70986;DHT22;58645;43.068;25.610;2023-06-22T10:33:07;33.80;50.60
70986;DHT22;58645;43.068;25.610;2023-06-22T10:35:34;33.30;52.20
70986;DHT22;58645;43.068;25.610;2023-06-22T10:37:59;33.80;50.50
70986;DHT22;58645;43.068;25.610;2023-06-22T10:40:25;34.70;49.20
70986;DHT22;58645;43.068;25.610;2023-06-22T10:42:51;34.90;48.20
70986;DHT22;58645;43.068;25.610;2023-06-22T10:45:17;34.40;49.20
70986;DHT22;58645;43.068;25.610;2023-06-22T10:47:43;34.00;48.50
70986;DHT22;58645;43.068;25.610;2023-06-22T10:50:08;33.60;47.60
70986;DHT22;58645;43.068;25.610;2023-06-22T10:52:34;33.30;49.50
70986;DHT22;58645;43.068;25.610;2023-06-22T10:55:00;34.20;51.10
70986;DHT22;58645;43.068;25.610;2023-06-22T10:57:26;35.20;47.90
70986;DHT22;58645;43.068;25.610;2023-06-22T10:59:51;34.60;44.20
70986;DHT22;58645;43.068;25.610;2023-06-22T11:02:17;34.50;44.30
70986;DHT22;58645;43.068;25.610;2023-06-22T11:04:43;35.20;46.50
70986;DHT22;58645;43.068;25.610;2023-06-22T11:07:09;35.70;43.80
70986;DHT22;58645;43.068;25.610;2023-06-22T11:09:35;36.10;44.60
70986;DHT22;58645;43.068;25.610;2023-06-22T11:12:01;36.70;43.80
70986;DHT22;58645;43.068;25.610;2023-06-22T11:14:26;37.10;44.40
70986;DHT22;58645;43.068;25.610;2023-06-22T11:16:52;37.20;42.90
70986;DHT22;58645;43.068;25.610;2023-06-22T11:19:21;37.20;41.00
70986;DHT22;58645;43.068;25.610;2023-06-22T11:22:08;37.10;39.90
70986;DHT22;58645;43.068;25.610;2023-06-22T11:24:33;36.40;40.20
70986;DHT22;58645;43.068;25.610;2023-06-22T11:26:59;36.20;41.90
70986;DHT22;58645;43.068;25.610;2023-06-22T11:29:25;36.20;39.70
70986;DHT22;58645;43.068;25.610;2023-06-22T11:31:50;36.70;39.10
70986;DHT22;58645;43.068;25.610;2023-06-22T11:34:16;36.90;38.50
70986;DHT22;58645;43.068;25.610;2023-06-22T11:36:42;37.10;37.30
70986;DHT22;58645;43.068;25.610;2023-06-22T11:39:09;37.20;38.60
70986;DHT22;58645;43.068;25.610;2023-06-22T11:41:35;37.30;36.70
70986;DHT22;58645;43.068;25.610;2023-06-22T11:44:01;37.50;36.20
70986;DHT22;58645;43.068;25.610;2023-06-22T11:46:27;37.50;37.60
70986;DHT22;58645;43.068;25.610;2023-06-22T11:48:52;37.40;36.40
70986;DHT22;58645;43.068;25.610;2023-06-22T11:51:18;37.60;35.70
70986;DHT22;58645;43.068;25.610;2023-06-22T11:53:44;37.60;37.50
70986;DHT22;58645;43.068;25.610;2023-06-22T11:56:09;37.40;37.00
70986;DHT22;58645;43.068;25.610;2023-06-22T11:58:35;37.50;36.20
70986;DHT22;58645;43.068;25.610;2023-06-22T12:01:01;37.50;36.00
70986;DHT22;58645;43.068;25.610;2023-06-22T12:03:27;37.50;36.00
70986;DHT22;58645;43.068;25.610;2023-06-22T12:05:52;37.60;37.10
70986;DHT22;58645;43.068;25.610;2023-06-22T12:08:19;37.70;37.70
70986;DHT22;58645;43.068;25.610;2023-06-22T12:11:00;37.90;36.30
70986;DHT22;58645;43.068;25.610;2023-06-22T12:13:26;38.10;36.40
70986;DHT22;58645;43.068;25.610;2023-06-22T12:15:51;38.00;36.40
70986;DHT22;58645;43.068;25.610;2023-06-22T12:18:20;37.60;37.20
70986;DHT22;58645;43.068;25.610;2023-06-22T12:20:47;37.50;37.10
70986;DHT22;58645;43.068;25.610;2023-06-22T12:23:14;37.60;37.20
70986;DHT22;58645;43.068;25.610;2023-06-22T12:25:40;37.40;37.00
70986;DHT22;58645;43.068;25.610;2023-06-22T12:28:05;37.50;36.30
70986;DHT22;58645;43.068;25.610;2023-06-22T12:30:33;37.00;36.20
70986;DHT22;58645;43.068;25.610;2023-06-22T12:32:58;37.00;37.10
70986;DHT22;58645;43.068;25.610;2023-06-22T12:35:24;37.00;36.90
70986;DHT22;58645;43.068;25.610;2023-06-22T12:37:50;37.00;37.90
70986;DHT22;58645;43.068;25.610;2023-06-22T12:40:15;37.10;37.70
70986;DHT22;58645;43.068;25.610;2023-06-22T12:42:41;36.80;37.20
70986;DHT22;58645;43.068;25.610;2023-06-22T12:45:08;37.00;38.00
70986;DHT22;58645;43.068;25.610;2023-06-22T12:47:34;37.10;37.00
70986;DHT22;58645;43.068;25.610;2023-06-22T12:49:59;37.20;37.40
70986;DHT22;58645;43.068;25.610;2023-06-22T12:52:25;37.10;37.70
70986;DHT22;58645;43.068;25.610;2023-06-22T12:54:51;37.00;37.50
70986;DHT22;58645;43.068;25.610;2023-06-22T12:57:17;36.90;37.30
70986;DHT22;58645;43.068;25.610;2023-06-22T12:59:45;36.90;36.10
70986;DHT22;58645;43.068;25.610;2023-06-22T13:02:11;36.30;36.30
70986;DHT22;58645;43.068;25.610;2023-06-22T13:04:36;36.10;37.40
70986;DHT22;58645;43.068;25.610;2023-06-22T13:07:02;36.20;37.40
70986;DHT22;58645;43.068;25.610;2023-06-22T13:09:28;36.20;36.30
70986;DHT22;58645;43.068;25.610;2023-06-22T13:11:54;36.20;36.50
70986;DHT22;58645;43.068;25.610;2023-06-22T13:14:19;36.10;36.80
70986;DHT22;58645;43.068;25.610;2023-06-22T13:16:45;36.00;38.10
70986;DHT22;58645;43.068;25.610;2023-06-22T13:19:11;35.90;37.10
70986;DHT22;58645;43.068;25.610;2023-06-22T13:21:36;36.00;37.60
70986;DHT22;58645;43.068;25.610;2023-06-22T13:24:02;35.70;36.90
70986;DHT22;58645;43.068;25.610;2023-06-22T13:26:28;35.80;36.30
70986;DHT22;58645;43.068;25.610;2023-06-22T13:28:54;35.70;37.40
70986;DHT22;58645;43.068;25.610;2023-06-22T13:31:20;35.50;39.40
70986;DHT22;58645;43.068;25.610;2023-06-22T13:33:47;35.40;39.50
70986;DHT22;58645;43.068;25.610;2023-06-22T13:36:14;35.20;41.10
70986;DHT22;58645;43.068;25.610;2023-06-22T13:38:40;34.90;40.90
70986;DHT22;58645;43.068;25.610;2023-06-22T13:41:06;34.70;41.10
70986;DHT22;58645;43.068;25.610;2023-06-22T13:43:32;34.60;41.50
70986;DHT22;58645;43.068;25.610;2023-06-22T13:45:58;34.50;41.20
70986;DHT22;58645;43.068;25.610;2023-06-22T13:48:24;34.20;41.30
70986;DHT22;58645;43.068;25.610;2023-06-22T13:50:51;34.00;42.40
70986;DHT22;58645;43.068;25.610;2023-06-22T13:53:17;33.70;41.60
70986;DHT22;58645;43.068;25.610;2023-06-22T13:55:43;33.70;42.60
70986;DHT22;58645;43.068;25.610;2023-06-22T13:58:09;33.50;44.00
70986;DHT22;58645;43.068;25.610;2023-06-22T14:00:35;33.20;43.30
70986;DHT22;58645;43.068;25.610;2023-06-22T14:03:00;33.10;45.30
70986;DHT22;58645;43.068;25.610;2023-06-22T14:05:26;32.90;44.30
70986;DHT22;58645;43.068;25.610;2023-06-22T14:07:52;32.80;44.80
70986;DHT22;58645;43.068;25.610;2023-06-22T14:10:17;32.60;45.30
70986;DHT22;58645;43.068;25.610;2023-06-22T14:12:43;32.30;45.40
70986;DHT22;58645;43.068;25.610;2023-06-22T14:15:10;32.10;45.00
70986;DHT22;58645;43.068;25.610;2023-06-22T14:17:36;32.00;47.20
70986;DHT22;58645;43.068;25.610;2023-06-22T14:20:02;32.00;47.70
70986;DHT22;58645;43.068;25.610;2023-06-22T14:22:29;31.90;46.60
70986;DHT22;58645;43.068;25.610;2023-06-22T14:24:55;31.80;46.30
70986;DHT22;58645;43.068;25.610;2023-06-22T14:27:23;31.80;47.10
70986;DHT22;58645;43.068;25.610;2023-06-22T14:29:48;31.80;47.60
70986;DHT22;58645;43.068;25.610;2023-06-22T14:32:14;31.80;47.30
70986;DHT22;58645;43.068;25.610;2023-06-22T14:34:40;31.80;47.20
70986;DHT22;58645;43.068;25.610;2023-06-22T14:37:06;31.80;47.00
70986;DHT22;58645;43.068;25.610;2023-06-22T14:39:33;31.80;46.90
70986;DHT22;58645;43.068;25.610;2023-06-22T14:41:59;31.70;48.70
70986;DHT22;58645;43.068;25.610;2023-06-22T14:44:26;31.60;48.90
70986;DHT22;58645;43.068;25.610;2023-06-22T14:46:55;31.60;49.90
70986;DHT22;58645;43.068;25.610;2023-06-22T14:49:20;31.50;49.60
70986;DHT22;58645;43.068;25.610;2023-06-22T14:51:46;31.30;49.80
70986;DHT22;58645;43.068;25.610;2023-06-22T14:54:12;31.20;49.30
70986;DHT22;58645;43.068;25.610;2023-06-22T14:56:38;31.00;50.00
70986;DHT22;58645;43.068;25.610;2023-06-22T14:59:04;30.90;49.80
70986;DHT22;58645;43.068;25.610;2023-06-22T15:01:29;30.80;49.90
70986;DHT22;58645;43.068;25.610;2023-06-22T15:03:55;30.70;50.50
70986;DHT22;58645;43.068;25.610;2023-06-22T15:06:21;30.70;51.10
70986;DHT22;58645;43.068;25.610;2023-06-22T15:08:47;30.60;51.20
70986;DHT22;58645;43.068;25.610;2023-06-22T15:11:13;30.60;51.10
70986;DHT22;58645;43.068;25.610;2023-06-22T15:13:39;30.60;52.30
70986;DHT22;58645;43.068;25.610;2023-06-22T15:16:05;30.70;52.30
70986;DHT22;58645;43.068;25.610;2023-06-22T15:18:32;30.60;52.50
70986;DHT22;58645;43.068;25.610;2023-06-22T15:21:01;30.60;53.50
70986;DHT22;58645;43.068;25.610;2023-06-22T15:23:28;30.50;53.10